createdAt,value
2019-05-25T00:00:49.402Z,11.2
2019-05-25T00:02:03.524Z,11.3
2019-05-25T00:03:17.731Z,11.2
2019-05-25T00:04:31.914Z,11.2
2019-05-25T00:05:46.092Z,11.1
2019-05-25T00:07:00.297Z,11.1
2019-05-25T00:10:42.851Z,11
2019-05-25T00:11:57.027Z,11.1
2019-05-25T00:13:11.233Z,11.1
2019-05-25T00:14:25.431Z,11.1
2019-05-25T00:15:39.634Z,11.1
2019-05-25T00:16:53.833Z,11
2019-05-25T00:18:08.090Z,11
2019-05-25T00:19:22.263Z,11
2019-05-25T00:21:50.700Z,10.9
2019-05-25T00:23:07.979Z,10.9
2019-05-25T00:24:20.869Z,10.9
2019-05-25T00:25:33.289Z,10.8
2019-05-25T00:26:47.369Z,10.9
2019-05-25T00:28:01.561Z,10.7
2019-05-25T00:29:20.769Z,10.9
2019-05-25T00:30:29.970Z,10.9
2019-05-25T00:31:44.181Z,10.9
2019-05-25T00:32:58.474Z,11
2019-05-25T00:34:12.558Z,10.9
2019-05-25T00:35:26.755Z,10.9
2019-05-25T00:36:41.033Z,11
2019-05-25T00:37:55.140Z,10.9
2019-05-25T00:39:09.441Z,10.8
2019-05-25T00:40:23.626Z,10.8
2019-05-25T00:41:37.836Z,10.9
2019-05-25T00:42:52.005Z,10.8
2019-05-25T00:44:06.173Z,10.7
2019-05-25T00:46:34.610Z,10.5
2019-05-25T00:47:48.703Z,10.5
2019-05-25T00:49:02.907Z,10.4
2019-05-25T00:50:17.097Z,10.5
2019-05-25T00:51:31.316Z,10.4
2019-05-25T00:52:45.497Z,10.5
2019-05-25T00:53:59.792Z,10.5
2019-05-25T00:55:13.880Z,10.6
2019-05-25T00:56:28.065Z,10.5
2019-05-25T00:57:42.349Z,10.5
2019-05-25T00:58:56.457Z,10.5
2019-05-25T01:00:10.679Z,10.4
2019-05-25T01:01:24.868Z,10.5
2019-05-25T01:02:39.055Z,10.4
2019-05-25T01:03:53.308Z,10.4
2019-05-25T01:05:07.623Z,10.3
2019-05-25T01:06:21.613Z,10.3
2019-05-25T01:07:35.809Z,10.3
2019-05-25T01:08:50.006Z,10.2
2019-05-25T01:10:04.232Z,10.2
2019-05-25T01:11:18.400Z,10.2
2019-05-25T01:12:32.661Z,10.1
2019-05-25T01:13:46.762Z,10.1
2019-05-25T01:15:00.955Z,10.1
2019-05-25T01:16:15.243Z,10.1
2019-05-25T01:17:29.335Z,10.1
2019-05-25T01:18:43.610Z,10.1
2019-05-25T01:19:57.803Z,10
2019-05-25T01:21:11.982Z,10
2019-05-25T01:22:26.088Z,10
2019-05-25T01:23:40.382Z,10
2019-05-25T01:24:54.689Z,10.1
2019-05-25T01:26:08.678Z,10.1
2019-05-25T01:27:22.966Z,10.1
2019-05-25T01:28:37.317Z,10
2019-05-25T01:29:51.338Z,9.9
2019-05-25T01:31:05.448Z,9.8
2019-05-25T01:32:19.657Z,9.9
2019-05-25T01:33:33.844Z,9.8
2019-05-25T01:34:48.039Z,9.9
2019-05-25T01:36:02.255Z,10
2019-05-25T01:37:16.447Z,10
2019-05-25T01:38:30.714Z,9.9
2019-05-25T01:39:44.830Z,9.9
2019-05-25T01:40:59.129Z,9.9
2019-05-25T01:42:13.241Z,9.9
2019-05-25T01:43:28.842Z,9.7
2019-05-25T01:44:41.624Z,9.9
2019-05-25T01:45:55.944Z,9.7
2019-05-25T01:47:10.021Z,9.8
2019-05-25T01:48:24.216Z,9.9
2019-05-25T01:49:38.423Z,9.9
2019-05-25T01:50:52.617Z,9.8
2019-05-25T01:52:06.895Z,9.8
2019-05-25T01:53:21.033Z,9.9
2019-05-25T01:54:35.210Z,9.8
2019-05-25T01:55:49.416Z,9.9
2019-05-25T01:57:03.689Z,9.8
2019-05-25T01:58:17.800Z,9.9
2019-05-25T01:59:32.010Z,9.9
2019-05-25T02:00:46.197Z,9.9
2019-05-25T02:02:00.524Z,9.8
2019-05-25T02:03:14.586Z,9.9
2019-05-25T02:04:28.789Z,9.9
2019-05-25T02:05:42.986Z,9.8
2019-05-25T02:06:57.186Z,9.9
2019-05-25T02:08:11.386Z,9.8
2019-05-25T02:09:25.705Z,9.9
2019-05-25T02:10:39.774Z,10
2019-05-25T02:11:53.962Z,10
2019-05-25T02:13:08.172Z,10.1
2019-05-25T02:14:22.415Z,10.2
2019-05-25T02:15:36.557Z,10.3
2019-05-25T02:16:50.757Z,10.1
2019-05-25T02:18:04.957Z,10.1
2019-05-25T02:19:19.240Z,10.2
2019-05-25T02:20:33.412Z,10.3
2019-05-25T02:21:47.568Z,10.2
2019-05-25T02:23:01.825Z,10.3
2019-05-25T02:24:16.022Z,10.2
2019-05-25T02:25:30.456Z,10.2
2019-05-25T02:26:44.471Z,10.3
2019-05-25T02:27:58.532Z,10.3
2019-05-25T02:29:12.752Z,10.3
2019-05-25T02:30:26.950Z,10.3
2019-05-25T02:31:41.235Z,10.3
2019-05-25T02:32:55.342Z,10.2
2019-05-25T02:34:09.518Z,10.2
2019-05-25T02:35:23.781Z,10.2
2019-05-25T02:36:37.886Z,10.2
2019-05-25T02:37:52.107Z,10.1
2019-05-25T02:39:06.510Z,10.2
2019-05-25T02:40:20.465Z,10.1
2019-05-25T02:41:34.759Z,10
2019-05-25T02:42:48.863Z,10
2019-05-25T02:44:03.180Z,10
2019-05-25T02:45:17.245Z,10
2019-05-25T02:46:37.511Z,10
2019-05-25T02:47:45.632Z,10
2019-05-25T02:48:59.819Z,10
2019-05-25T02:50:14.024Z,10.1
2019-05-25T02:51:28.282Z,10
2019-05-25T02:52:42.543Z,10
2019-05-25T02:53:56.587Z,10
2019-05-25T02:55:10.773Z,10
2019-05-25T02:56:24.964Z,9.8
2019-05-25T02:57:39.254Z,9.8
2019-05-25T02:58:53.373Z,9.9
2019-05-25T03:00:07.639Z,9.9
2019-05-25T03:01:21.736Z,9.9
2019-05-25T03:02:36.081Z,9.8
2019-05-25T03:03:50.123Z,9.9
2019-05-25T03:05:04.327Z,9.9
2019-05-25T03:06:18.673Z,9.9
2019-05-25T03:07:35.471Z,10
2019-05-25T03:08:50.749Z,10.1
2019-05-25T03:10:01.108Z,10.2
2019-05-25T03:11:15.284Z,10.1
2019-05-25T03:12:29.569Z,10.2
2019-05-25T03:13:43.662Z,10.3
2019-05-25T03:14:57.949Z,10.3
2019-05-25T03:17:26.236Z,10.4
2019-05-25T03:18:40.525Z,10.5
2019-05-25T03:19:54.607Z,10.5
2019-05-25T03:21:08.787Z,10.6
2019-05-25T03:22:23.197Z,10.5
2019-05-25T03:23:37.188Z,10.6
2019-05-25T03:24:51.537Z,10.6
2019-05-25T03:27:20.826Z,10.6
2019-05-25T03:28:33.882Z,10.6
2019-05-25T03:29:48.126Z,10.7
2019-05-25T03:32:16.446Z,10.8
2019-05-25T03:33:30.651Z,10.8
2019-05-25T03:34:44.846Z,10.9
2019-05-25T03:35:59.026Z,10.9
2019-05-25T03:37:13.308Z,10.8
2019-05-25T03:38:27.441Z,10.8
2019-05-25T03:39:41.580Z,10.8
2019-05-25T03:40:55.707Z,10.8
2019-05-25T03:42:09.995Z,10.9
2019-05-25T03:43:24.085Z,10.9
2019-05-25T03:44:38.347Z,10.8
2019-05-25T03:45:52.442Z,10.9
2019-05-25T03:47:06.681Z,10.9
2019-05-25T03:48:20.855Z,10.9
2019-05-25T03:49:35.003Z,10.9
2019-05-25T03:50:49.275Z,10.9
2019-05-25T03:52:03.426Z,10.9
2019-05-25T03:53:17.597Z,10.9
2019-05-25T03:54:31.771Z,10.9
2019-05-25T03:55:46.032Z,11
2019-05-25T03:57:00.137Z,11
2019-05-25T03:58:14.318Z,11
2019-05-25T03:59:28.501Z,11.1
2019-05-25T04:00:42.697Z,11
2019-05-25T04:01:56.870Z,11
2019-05-25T04:03:11.079Z,11.1
2019-05-25T04:04:25.341Z,11.2
2019-05-25T04:05:39.442Z,11.2
2019-05-25T04:06:53.636Z,11.2
2019-05-25T04:08:07.827Z,11.3
2019-05-25T04:09:22.126Z,11.2
2019-05-25T04:10:36.289Z,11.4
2019-05-25T04:13:08.319Z,11.4
2019-05-25T04:14:18.772Z,11.5
2019-05-25T04:15:32.930Z,11.6
2019-05-25T04:16:47.100Z,11.5
2019-05-25T04:18:01.284Z,11.6
2019-05-25T04:19:15.487Z,11.6
2019-05-25T04:20:29.733Z,11.8
2019-05-25T04:22:58.035Z,11.7
2019-05-25T04:24:12.250Z,11.7
2019-05-25T04:25:26.323Z,11.8
2019-05-25T04:26:40.636Z,11.8
2019-05-25T04:27:54.655Z,11.8
2019-05-25T04:30:23.021Z,11.8
2019-05-25T04:31:37.203Z,11.7
2019-05-25T04:32:51.330Z,11.7
2019-05-25T04:34:05.495Z,11.7
2019-05-25T04:36:33.853Z,11.8
2019-05-25T04:37:48.024Z,11.6
2019-05-25T04:39:02.184Z,11.7
2019-05-25T04:40:16.352Z,11.8
2019-05-25T04:41:30.593Z,11.7
2019-05-25T04:42:44.694Z,11.7
2019-05-25T04:43:58.987Z,11.7
2019-05-25T04:45:13.046Z,11.8
2019-05-25T04:46:27.209Z,11.8
2019-05-25T04:47:41.391Z,11.8
2019-05-25T04:48:55.617Z,12
2019-05-25T04:50:09.777Z,12.1
2019-05-25T04:51:23.939Z,12.1
2019-05-25T04:52:38.018Z,12
2019-05-25T04:53:52.266Z,12
2019-05-25T04:55:06.426Z,12
2019-05-25T04:56:20.501Z,12.1
2019-05-25T04:57:34.665Z,12.1
2019-05-25T04:58:48.827Z,12.1
2019-05-25T05:00:03.086Z,12.1
2019-05-25T05:01:17.249Z,12.3
2019-05-25T05:03:45.574Z,12.3
2019-05-25T05:04:59.636Z,12.2
2019-05-25T05:06:13.802Z,12.3
2019-05-25T05:07:27.973Z,12.3
2019-05-25T05:08:42.160Z,12.3
2019-05-25T05:09:56.275Z,12.4
2019-05-25T05:11:10.542Z,12.5
2019-05-25T05:12:24.596Z,12.5
2019-05-25T05:13:38.857Z,12.5
2019-05-25T05:16:07.123Z,12.5
2019-05-25T05:17:21.239Z,12.4
2019-05-25T05:18:35.373Z,12.4
2019-05-25T05:19:49.510Z,12.5
2019-05-25T05:21:03.681Z,12.6
2019-05-25T05:22:17.829Z,12.5
2019-05-25T05:23:32.066Z,12.6
2019-05-25T05:26:00.389Z,12.6
2019-05-25T05:27:14.438Z,12.6
2019-05-25T05:28:28.603Z,12.6
2019-05-25T05:29:42.759Z,12.6
2019-05-25T05:30:56.907Z,12.6
2019-05-25T05:32:11.169Z,12.5
2019-05-25T05:33:25.292Z,12.6
2019-05-25T05:34:39.361Z,12.6
2019-05-25T05:35:53.588Z,12.6
2019-05-25T05:37:07.655Z,12.7
2019-05-25T05:38:21.903Z,12.7
2019-05-25T05:39:36.120Z,12.7
2019-05-25T05:40:50.150Z,12.7
2019-05-25T05:42:04.399Z,12.7
2019-05-25T05:43:18.421Z,12.7
2019-05-25T05:45:46.719Z,12.9
2019-05-25T05:47:00.893Z,12.9
2019-05-25T05:48:15.178Z,12.9
2019-05-25T05:50:43.335Z,13
2019-05-25T05:53:11.652Z,12.8
2019-05-25T05:54:25.780Z,12.7
2019-05-25T05:56:54.089Z,12.7
2019-05-25T05:58:08.317Z,12.7
2019-05-25T05:59:22.399Z,12.9
2019-05-25T06:00:36.600Z,12.7
2019-05-25T06:01:50.704Z,12.7
2019-05-25T06:03:06.689Z,12.8
2019-05-25T06:04:19.032Z,12.9
2019-05-25T06:05:33.245Z,12.9
2019-05-25T06:06:47.311Z,12.8
2019-05-25T06:08:01.462Z,12.9
2019-05-25T06:09:15.607Z,13
2019-05-25T06:10:29.766Z,13
2019-05-25T06:11:43.998Z,12.9
2019-05-25T06:12:58.050Z,12.8
2019-05-25T06:14:12.206Z,13
2019-05-25T06:15:26.342Z,13.1
2019-05-25T06:16:40.499Z,13
2019-05-25T06:17:54.734Z,12.9
2019-05-25T06:19:08.788Z,13.1
2019-05-25T06:20:22.989Z,13.1
2019-05-25T06:21:37.176Z,13.2
2019-05-25T06:22:51.308Z,13.4
2019-05-25T06:24:05.426Z,13.5
2019-05-25T06:25:19.573Z,13.5
2019-05-25T06:26:33.632Z,13.7
2019-05-25T06:27:47.849Z,13.7
2019-05-25T06:29:01.913Z,13.5
2019-05-25T06:30:16.052Z,13.4
2019-05-25T06:31:30.188Z,13.4
2019-05-25T06:32:44.491Z,13.7
2019-05-25T06:35:12.728Z,14.2
2019-05-25T06:36:26.850Z,14.7
2019-05-25T06:37:41.006Z,15
2019-05-25T06:40:09.297Z,15.6
2019-05-25T06:41:23.312Z,15.7
2019-05-25T06:42:37.614Z,15.4
2019-05-25T06:45:05.786Z,15.4
2019-05-25T06:47:33.966Z,15.2
2019-05-25T06:50:02.289Z,15.3
2019-05-25T06:51:16.408Z,15.4
2019-05-25T06:52:30.453Z,15.3
2019-05-25T06:53:44.669Z,14.7
2019-05-25T06:55:00.878Z,14.7
2019-05-25T06:56:12.843Z,14.6
2019-05-25T06:57:26.969Z,15
2019-05-25T06:58:41.104Z,15.5
2019-05-25T06:59:55.239Z,15.5
2019-05-25T07:01:09.374Z,15.6
2019-05-25T07:02:23.495Z,15.4
2019-05-25T07:03:37.609Z,15.2
2019-05-25T07:04:51.742Z,15.1
2019-05-25T07:06:05.981Z,15.9
2019-05-25T07:07:19.997Z,15.3
2019-05-25T07:08:34.119Z,15.3
2019-05-25T07:09:48.260Z,15.1
2019-05-25T07:11:02.474Z,14.9
2019-05-25T07:12:16.499Z,14.3
2019-05-25T07:13:30.627Z,14.5
2019-05-25T07:14:44.801Z,14.6
2019-05-25T07:15:58.874Z,14.6
2019-05-25T07:17:13.028Z,14.7
2019-05-25T07:18:27.262Z,14.7
2019-05-25T07:19:41.259Z,14.6
2019-05-25T07:20:55.395Z,14.6
2019-05-25T07:22:09.518Z,14.8
2019-05-25T07:24:37.767Z,14.9
2019-05-25T07:25:51.966Z,15.2
2019-05-25T07:28:20.152Z,15.4
2019-05-25T07:29:34.272Z,15.3
2019-05-25T07:30:51.319Z,15.2
2019-05-25T07:32:02.529Z,15.2
2019-05-25T07:33:16.655Z,15.5
2019-05-25T07:34:30.778Z,15.9
2019-05-25T07:35:45.202Z,16.3
2019-05-25T07:36:59.017Z,16.3
2019-05-25T07:38:13.139Z,16.4
2019-05-25T07:39:27.235Z,16.2
2019-05-25T07:41:55.463Z,16.2
2019-05-25T07:43:09.686Z,16.1
2019-05-25T07:44:23.753Z,15.7
2019-05-25T07:45:37.822Z,15.3
2019-05-25T07:46:51.916Z,15.2
2019-05-25T07:48:06.145Z,15.5
2019-05-25T07:49:20.170Z,15.3
2019-05-25T07:50:34.376Z,15.4
2019-05-25T07:51:48.479Z,15.4
2019-05-25T07:53:07.481Z,15.1
2019-05-25T07:54:16.637Z,15.8
2019-05-25T07:55:30.764Z,17.2
2019-05-25T07:56:44.910Z,18.2
2019-05-25T07:57:59.088Z,18.7
2019-05-25T07:59:13.036Z,18.9
2019-05-25T08:00:27.194Z,17.9
2019-05-25T08:01:41.287Z,18.9
2019-05-25T08:02:55.268Z,20.1
2019-05-25T08:04:09.334Z,20.5
2019-05-25T08:05:23.402Z,19.3
2019-05-25T08:06:37.472Z,17.9
2019-05-25T08:07:51.549Z,17.6
2019-05-25T08:09:05.704Z,17.3
2019-05-25T08:10:19.815Z,17.7
2019-05-25T08:11:33.847Z,16.9
2019-05-25T08:12:47.921Z,17.5
2019-05-25T08:14:02.023Z,17.7
2019-05-25T08:15:16.013Z,17.2
2019-05-25T08:16:30.052Z,17.8
2019-05-25T08:17:44.209Z,18.6
2019-05-25T08:18:58.267Z,20
2019-05-25T08:20:12.251Z,21
2019-05-25T08:21:26.311Z,19.8
2019-05-25T08:22:40.424Z,18
2019-05-25T08:23:54.596Z,18.3
2019-05-25T08:25:08.631Z,17.9
2019-05-25T08:26:22.600Z,18.1
2019-05-25T08:27:36.673Z,18.7
2019-05-25T08:28:50.736Z,18
2019-05-25T08:30:04.802Z,18.3
2019-05-25T08:31:18.870Z,18
2019-05-25T08:32:32.940Z,17.3
2019-05-25T08:33:47.132Z,17.2
2019-05-25T08:35:01.094Z,17.4
2019-05-25T08:36:15.204Z,17.5
2019-05-25T08:37:29.271Z,16.9
2019-05-25T08:38:43.364Z,16.8
2019-05-25T08:39:57.463Z,16.6
2019-05-25T08:41:11.592Z,16.8
2019-05-25T08:42:25.642Z,16.7
2019-05-25T08:43:39.720Z,16.9
2019-05-25T08:44:53.817Z,16.9
2019-05-25T08:46:07.920Z,17
2019-05-25T08:47:22.131Z,17.3
2019-05-25T08:48:36.200Z,18.1
2019-05-25T08:49:50.228Z,17.8
2019-05-25T08:51:04.308Z,17.8
2019-05-25T08:52:20.634Z,18.1
2019-05-25T08:53:32.596Z,18
2019-05-25T08:54:46.578Z,17.7
2019-05-25T08:56:00.680Z,17.3
2019-05-25T08:57:14.785Z,17.4
2019-05-25T08:58:28.859Z,18
2019-05-25T09:00:57.110Z,19.1
2019-05-25T09:04:39.389Z,18.5
2019-05-25T09:05:53.394Z,18.2
2019-05-25T09:07:07.496Z,17.8
2019-05-25T09:08:21.578Z,17.3
2019-05-25T09:09:35.757Z,17.7
2019-05-25T09:10:49.762Z,17.9
2019-05-25T09:12:03.923Z,18.1
2019-05-25T09:13:18.029Z,18.8
2019-05-25T09:14:32.015Z,19.3
2019-05-25T09:15:46.080Z,19.4
2019-05-25T09:17:00.157Z,20.1
2019-05-25T09:19:28.303Z,19.3
2019-05-25T09:20:42.359Z,20
2019-05-25T09:21:56.405Z,20.1
2019-05-25T09:23:10.431Z,21.1
2019-05-25T09:24:24.494Z,22.1
2019-05-25T09:25:38.593Z,22.1
2019-05-25T09:26:52.701Z,20.2
2019-05-25T09:28:06.634Z,18.4
2019-05-25T09:29:20.632Z,18
2019-05-25T09:30:34.809Z,17.4
2019-05-25T09:31:48.925Z,16.8
2019-05-25T09:33:02.852Z,16.7
2019-05-25T09:34:16.938Z,16.9
2019-05-25T09:35:31.023Z,17.4
2019-05-25T09:36:45.191Z,18.3
2019-05-25T09:37:59.204Z,20
2019-05-25T09:39:13.251Z,20.4
2019-05-25T09:40:27.312Z,19.8
2019-05-25T09:41:41.412Z,19
2019-05-25T09:42:55.449Z,18.1
2019-05-25T09:44:09.532Z,18.3
2019-05-25T09:45:23.606Z,18.2
2019-05-25T09:46:37.796Z,17.2
2019-05-25T09:47:51.784Z,17
2019-05-25T09:50:20.217Z,18.1
2019-05-25T09:51:34.129Z,17.9
2019-05-25T09:52:48.143Z,18.7
2019-05-25T09:55:16.342Z,20.8
2019-05-25T09:56:30.314Z,19.5
2019-05-25T09:57:44.450Z,18
2019-05-25T09:58:58.451Z,17.6
2019-05-25T10:00:12.615Z,17.3
2019-05-25T10:01:26.773Z,18.2
2019-05-25T10:02:40.711Z,20.2
2019-05-25T10:03:54.728Z,21.1
2019-05-25T10:05:08.870Z,19.5
2019-05-25T10:07:36.918Z,18.3
2019-05-25T10:08:51.279Z,19.1
2019-05-25T10:10:05.028Z,19.5
2019-05-25T10:11:19.192Z,19.1
2019-05-25T10:12:33.289Z,18.6
2019-05-25T10:13:47.241Z,18.4
2019-05-25T10:15:01.297Z,18.4
2019-05-25T10:16:15.358Z,18.7
2019-05-25T10:17:29.420Z,19.4
2019-05-25T10:18:43.502Z,20.1
2019-05-25T10:19:57.531Z,19.9
2019-05-25T10:21:11.596Z,20
2019-05-25T10:22:25.655Z,19.7
2019-05-25T10:23:39.821Z,18.4
2019-05-25T10:24:53.817Z,18
2019-05-25T10:26:07.969Z,18
2019-05-25T10:27:22.019Z,18.4
2019-05-25T10:28:36.144Z,20.9
2019-05-25T10:29:50.059Z,21.2
2019-05-25T10:31:04.106Z,20.6
2019-05-25T10:32:18.181Z,19.4
2019-05-25T10:33:32.393Z,20
2019-05-25T10:34:46.330Z,19.5
2019-05-25T10:36:00.877Z,19.3
2019-05-25T10:37:14.361Z,19.1
2019-05-25T10:38:28.410Z,20.2
2019-05-25T10:39:42.574Z,21.2
2019-05-25T10:40:56.495Z,20.2
2019-05-25T10:42:10.597Z,19.4
2019-05-25T10:43:24.617Z,19.9
2019-05-25T10:44:38.695Z,20.7
2019-05-25T10:45:52.968Z,20.2
2019-05-25T10:48:20.970Z,19.6
2019-05-25T10:49:34.929Z,19.2
2019-05-25T10:50:48.995Z,18.8
2019-05-25T10:52:03.128Z,18.4
2019-05-25T10:53:17.184Z,19.4
2019-05-25T10:54:31.249Z,19.9
2019-05-25T10:55:45.302Z,18.9
2019-05-25T10:56:59.397Z,18.5
2019-05-25T10:58:13.486Z,18.7
2019-05-25T10:59:27.564Z,20.3
2019-05-25T11:00:41.603Z,20.6
2019-05-25T11:01:55.666Z,20.9
2019-05-25T11:03:09.814Z,20.9
2019-05-25T11:04:23.783Z,19.7
2019-05-25T11:05:37.919Z,19.9
2019-05-25T11:06:51.896Z,21.1
2019-05-25T11:09:20.105Z,20.1
2019-05-25T11:10:34.155Z,20.1
2019-05-25T11:11:48.168Z,18.9
2019-05-25T11:13:02.299Z,18.6
2019-05-25T11:14:16.294Z,18.2
2019-05-25T11:15:30.385Z,18.4
2019-05-25T11:16:44.479Z,18.6
2019-05-25T11:17:58.569Z,18.8
2019-05-25T11:19:12.665Z,18.7
2019-05-25T11:20:26.985Z,18.4
2019-05-25T11:21:40.932Z,18.1
2019-05-25T11:22:54.959Z,18.3
2019-05-25T11:24:09.074Z,18.6
2019-05-25T11:25:23.148Z,18.9
2019-05-25T11:26:37.266Z,19.4
2019-05-25T11:27:51.340Z,19.6
2019-05-25T11:29:05.439Z,19.7
2019-05-25T11:30:19.528Z,19.2
2019-05-25T11:31:33.699Z,18.8
2019-05-25T11:32:47.709Z,18.3
2019-05-25T11:34:01.813Z,18.2
2019-05-25T11:35:16.040Z,18.2
2019-05-25T11:36:30.110Z,18.7
2019-05-25T11:37:44.204Z,18.9
2019-05-25T11:38:58.281Z,19
2019-05-25T11:40:12.294Z,19
2019-05-25T11:41:26.475Z,19.4
2019-05-25T11:42:40.492Z,20.7
2019-05-25T11:43:54.565Z,20.8
2019-05-25T11:45:08.655Z,20
2019-05-25T11:46:22.750Z,19.5
2019-05-25T11:47:36.832Z,19.2
2019-05-25T11:48:50.985Z,18.9
2019-05-25T11:50:05.072Z,19.2
2019-05-25T11:51:19.144Z,19.5
2019-05-25T11:52:33.153Z,19
2019-05-25T11:53:47.237Z,19.5
2019-05-25T11:55:01.766Z,19.7
2019-05-25T11:56:15.390Z,19.7
2019-05-25T11:57:29.470Z,19.6
2019-05-25T11:58:43.641Z,20.4
2019-05-25T11:59:57.609Z,20
2019-05-25T12:01:11.689Z,19.5
2019-05-25T12:02:25.940Z,19.5
2019-05-25T12:03:39.964Z,20.1
2019-05-25T12:04:53.918Z,20.2
2019-05-25T12:06:07.994Z,19.8
2019-05-25T12:07:22.127Z,19.6
2019-05-25T12:08:36.205Z,20.4
2019-05-25T12:09:50.213Z,21.2
2019-05-25T12:11:04.381Z,20.8
2019-05-25T12:12:18.335Z,19.6
2019-05-25T12:13:32.422Z,20.4
2019-05-25T12:14:46.476Z,19.6
2019-05-25T12:16:00.541Z,19.8
2019-05-25T12:18:28.654Z,20.3
2019-05-25T12:19:42.729Z,20.6
2019-05-25T12:20:56.801Z,20.5
2019-05-25T12:22:10.862Z,19.7
2019-05-25T12:23:24.934Z,19.3
2019-05-25T12:24:39.007Z,19.3
2019-05-25T12:25:53.185Z,19.5
2019-05-25T12:27:07.308Z,19.9
2019-05-25T12:28:21.258Z,20
2019-05-25T12:29:35.404Z,20.1
2019-05-25T12:30:50.875Z,19.5
2019-05-25T12:32:05.511Z,19.3
2019-05-25T12:33:19.229Z,19.5
2019-05-25T12:34:32.562Z,21.4
2019-05-25T12:35:46.170Z,21.7
2019-05-25T12:36:59.761Z,22.3
2019-05-25T12:38:13.892Z,23.3
2019-05-25T12:39:27.858Z,23.7
2019-05-25T12:40:41.980Z,24
2019-05-25T12:41:56.037Z,22.4
2019-05-25T12:43:09.996Z,20.3
2019-05-25T12:45:38.110Z,22
2019-05-25T12:46:52.183Z,20.5
2019-05-25T12:48:06.255Z,21.1
2019-05-25T12:50:35.877Z,21.5
2019-05-25T12:53:02.562Z,22.1
2019-05-25T12:54:16.436Z,21.9
2019-05-25T12:55:30.587Z,22.2
2019-05-25T12:56:50.455Z,22.1
2019-05-25T12:57:58.594Z,21.5
2019-05-25T12:59:12.680Z,20.9
2019-05-25T13:00:26.790Z,21.7
2019-05-25T13:01:40.752Z,22.1
2019-05-25T13:02:54.869Z,22.9
2019-05-25T13:04:08.838Z,23.3
2019-05-25T13:05:23.090Z,21.9
2019-05-25T13:06:36.939Z,21.7
2019-05-25T13:07:51.093Z,21
2019-05-25T13:09:05.074Z,21.5
2019-05-25T13:10:20.625Z,22.2
2019-05-25T13:11:33.160Z,22.3
2019-05-25T13:12:47.233Z,22.2
2019-05-25T13:14:01.297Z,22
2019-05-25T13:15:15.354Z,20.8
2019-05-25T13:16:29.403Z,21.9
2019-05-25T13:17:43.618Z,22.5
2019-05-25T13:18:57.509Z,23.3
2019-05-25T13:20:11.560Z,23.7
2019-05-25T13:21:25.655Z,23.1
2019-05-25T13:22:39.659Z,23.7
2019-05-25T13:25:10.507Z,23
2019-05-25T13:26:21.791Z,23
2019-05-25T13:27:37.873Z,24.2
2019-05-25T13:28:49.870Z,25.2
2019-05-25T13:30:03.914Z,23.8
2019-05-25T13:31:18.074Z,22.5
2019-05-25T13:32:32.116Z,22.1
2019-05-25T13:33:46.168Z,21.7
2019-05-25T13:35:00.149Z,21.6
2019-05-25T13:36:14.193Z,21.5
2019-05-25T13:37:28.355Z,21.5
2019-05-25T13:38:42.327Z,21.6
2019-05-25T13:39:56.477Z,20.9
2019-05-25T13:41:10.470Z,20.1
2019-05-25T13:42:24.546Z,20.1
2019-05-25T13:43:38.625Z,19.8
2019-05-25T13:44:52.724Z,19.6
2019-05-25T13:46:06.936Z,19.7
2019-05-25T13:47:20.920Z,20
2019-05-25T13:48:34.986Z,19.8
2019-05-25T13:49:49.091Z,19.8
2019-05-25T13:51:03.201Z,19.6
2019-05-25T13:52:17.280Z,19.7
2019-05-25T13:53:31.413Z,20
2019-05-25T13:54:45.503Z,20
2019-05-25T13:55:59.588Z,20.5
2019-05-25T13:57:13.686Z,20.4
2019-05-25T13:58:27.863Z,20.1
2019-05-25T13:59:41.881Z,19.9
2019-05-25T14:02:10.161Z,19.7
2019-05-25T14:03:24.282Z,20.6
2019-05-25T14:04:38.304Z,21.3
2019-05-25T14:05:52.372Z,21.3
2019-05-25T14:07:06.515Z,22.8
2019-05-25T14:08:20.561Z,23.8
2019-05-25T14:09:35.762Z,24.5
2019-05-25T14:10:48.736Z,22.9
2019-05-25T14:12:02.815Z,23.1
2019-05-25T14:13:16.891Z,22.3
2019-05-25T14:14:30.971Z,22.7
2019-05-25T14:15:45.067Z,22
2019-05-25T14:16:59.179Z,21.4
2019-05-25T14:18:13.218Z,21
2019-05-25T14:19:27.368Z,20.2
2019-05-25T14:20:41.815Z,20.4
2019-05-25T14:21:55.473Z,20.6
2019-05-25T14:23:09.523Z,20.4
2019-05-25T14:24:23.619Z,21.8
2019-05-25T14:25:37.691Z,23
2019-05-25T14:26:51.766Z,22.1
2019-05-25T14:28:05.861Z,23.1
2019-05-25T14:29:19.917Z,24.1
2019-05-25T14:30:34.084Z,25.1
2019-05-25T14:31:48.061Z,24.6
2019-05-25T14:33:02.232Z,24.9
2019-05-25T14:34:16.304Z,24.9
2019-05-25T14:36:44.295Z,26.2
2019-05-25T14:39:12.476Z,25.1
2019-05-25T14:40:26.523Z,24.2
2019-05-25T14:41:40.497Z,23.2
2019-05-25T14:42:54.671Z,24.1
2019-05-25T14:44:08.607Z,23.7
2019-05-25T14:45:22.745Z,23.4
2019-05-25T14:46:36.806Z,23.1
2019-05-25T14:47:50.811Z,23.6
2019-05-25T14:49:04.916Z,23.3
2019-05-25T14:50:20.602Z,23.4
2019-05-25T14:52:47.021Z,24.9
2019-05-25T14:54:02.799Z,24
2019-05-25T14:56:29.313Z,22.3
2019-05-25T14:57:43.297Z,22.5
2019-05-25T14:59:00.571Z,23.3
2019-05-25T15:00:14.697Z,23
2019-05-25T15:01:25.501Z,23.1
2019-05-25T15:02:39.557Z,22
2019-05-25T15:03:53.658Z,21.2
2019-05-25T15:05:07.780Z,21
2019-05-25T15:06:21.770Z,20.2
2019-05-25T15:07:35.838Z,20.4
2019-05-25T15:08:52.929Z,20.8
2019-05-25T15:10:04.005Z,21.7
2019-05-25T15:11:18.088Z,22.4
2019-05-25T15:12:32.188Z,23
2019-05-25T15:13:46.240Z,24.2
2019-05-25T15:15:00.822Z,24
2019-05-25T15:16:14.389Z,23.3
2019-05-25T15:17:28.466Z,21.6
2019-05-25T15:18:42.554Z,22.1
2019-05-25T15:19:56.715Z,23.2
2019-05-25T15:21:10.677Z,23.1
2019-05-25T15:22:24.747Z,23.5
2019-05-25T15:23:41.649Z,23.1
2019-05-25T15:26:06.963Z,21.1
2019-05-25T15:28:35.105Z,20.8
2019-05-25T15:29:49.193Z,20.9
2019-05-25T15:31:03.305Z,20.8
2019-05-25T15:32:17.365Z,20.6
2019-05-25T15:33:35.946Z,20.2
2019-05-25T15:34:45.555Z,20.1
2019-05-25T15:35:59.645Z,20
2019-05-25T15:37:13.754Z,20.9
2019-05-25T15:38:27.870Z,22.5
2019-05-25T15:39:41.980Z,23
2019-05-25T15:40:56.050Z,21.4
2019-05-25T15:42:10.162Z,20.4
2019-05-25T15:43:24.268Z,20
2019-05-25T15:44:38.360Z,19.8
2019-05-25T15:45:52.473Z,19.6
2019-05-25T15:47:06.684Z,19.5
2019-05-25T15:48:20.737Z,19.1
2019-05-25T15:50:48.916Z,18.8
2019-05-25T15:52:03.228Z,19
2019-05-25T15:53:17.158Z,19
2019-05-25T15:54:31.310Z,19.5
2019-05-25T15:55:45.457Z,21.4
2019-05-25T15:56:59.521Z,21.2
2019-05-25T15:58:13.611Z,20.4
2019-05-25T15:59:27.746Z,21.5
2019-05-25T16:00:41.838Z,22.6
2019-05-25T16:01:56.115Z,23.4
2019-05-25T16:03:10.149Z,24.2
2019-05-25T16:04:24.167Z,23.5
2019-05-25T16:05:38.287Z,22.2
2019-05-25T16:06:52.405Z,22.3
2019-05-25T16:08:06.462Z,22.8
2019-05-25T16:09:20.758Z,21.5
2019-05-25T16:10:34.656Z,21.2
2019-05-25T16:13:05.665Z,19.8
2019-05-25T16:14:17.018Z,20.2
2019-05-25T16:15:31.051Z,21.1
2019-05-25T16:16:45.142Z,20.9
2019-05-25T16:17:59.303Z,20.4
2019-05-25T16:19:13.320Z,20.2
2019-05-25T16:20:27.413Z,21.6
2019-05-25T16:21:47.605Z,21.1
2019-05-25T16:22:55.639Z,21.7
2019-05-25T16:25:23.804Z,21.4
2019-05-25T16:26:37.925Z,21.3
2019-05-25T16:27:52.012Z,21.7
2019-05-25T16:29:06.188Z,21.1
2019-05-25T16:30:20.268Z,20.1
2019-05-25T16:31:34.336Z,19.6
2019-05-25T16:32:48.482Z,19.5
2019-05-25T16:34:02.541Z,19.3
2019-05-25T16:35:16.755Z,19.1
2019-05-25T16:36:30.904Z,18.9
2019-05-25T16:37:44.911Z,18.8
2019-05-25T16:38:59.085Z,18.7
2019-05-25T16:40:13.130Z,18.7
2019-05-25T16:41:27.348Z,18.6
2019-05-25T16:42:41.365Z,18.5
2019-05-25T16:43:55.617Z,18.6
2019-05-25T16:45:09.606Z,20.2
2019-05-25T16:46:23.735Z,19.9
2019-05-25T16:47:37.921Z,19.7
2019-05-25T16:48:51.970Z,19.5
2019-05-25T16:50:06.179Z,19.3
2019-05-25T16:51:20.196Z,18.9
2019-05-25T16:52:34.329Z,18.8
2019-05-25T16:53:48.450Z,18.7
2019-05-25T16:55:02.573Z,18.4
2019-05-25T16:56:16.808Z,18.3
2019-05-25T16:57:30.839Z,18.3
2019-05-25T16:58:45.000Z,18.2
2019-05-25T16:59:59.098Z,18.1
2019-05-25T17:01:13.333Z,18.1
2019-05-25T17:02:27.370Z,18.7
2019-05-25T17:04:55.624Z,20.7
2019-05-25T17:07:23.876Z,22.9
2019-05-25T17:08:38.006Z,21.9
2019-05-25T17:09:52.164Z,20.9
2019-05-25T17:11:06.284Z,20
2019-05-25T17:12:20.383Z,19.5
2019-05-25T17:13:34.500Z,19.5
2019-05-25T17:14:48.686Z,19.3
2019-05-25T17:17:16.873Z,19.8
2019-05-25T17:18:31.127Z,20.9
2019-05-25T17:19:45.092Z,21
2019-05-25T17:20:59.289Z,20.8
2019-05-25T17:22:13.327Z,20.6
2019-05-25T17:23:27.481Z,20.8
2019-05-25T17:24:41.557Z,21.1
2019-05-25T17:27:09.852Z,21.1
2019-05-25T17:28:23.961Z,21.5
2019-05-25T17:29:37.989Z,22
2019-05-25T17:30:52.241Z,22.4
2019-05-25T17:32:06.252Z,22.9
2019-05-25T17:33:20.395Z,23.3
2019-05-25T17:34:34.395Z,23.2
2019-05-25T17:35:48.504Z,21.9
2019-05-25T17:37:02.602Z,21.5
2019-05-25T17:38:16.798Z,21.2
2019-05-25T17:39:30.819Z,20.5
2019-05-25T17:40:44.970Z,20.2
2019-05-25T17:41:59.023Z,20.4
2019-05-25T17:43:13.132Z,20.2